Time;durP1;ratioP1;P1;durP2;ratioP2;P2;SDS_P1;SDS_P2;PMS_P1;PMS_P2;Temp;Humidity;BMP_temperature;BMP_pressure;BME280_temperature;BME280_humidity;BME280_pressure;Samples;Min_cycle;Max_cycle;Signal;HPM_P1;HPM_P2
2022/11/25 00:01:10;;;;;;;18.38;4.05;;;7.70;99.90;;;;;;5053462;28;20662;-70
2022/11/25 00:03:37;;;;;;;12.52;4.70;;;7.70;99.90;;;;;;5035364;28;20079;-70
2022/11/25 00:06:14;;;;;;;11.63;3.75;;;7.50;99.90;;;;;;5053236;28;20112;-70
2022/11/25 00:08:42;;;;;;;18.10;3.90;;;7.70;99.90;;;;;;5053019;28;20124;-69
2022/11/25 00:11:08;;;;;;;15.90;4.28;;;7.50;99.90;;;;;;5052983;28;20562;-70
2022/11/25 00:13:34;;;;;;;13.65;3.80;;;7.50;99.90;;;;;;5034951;28;20075;-70
2022/11/25 00:16:04;;;;;;;11.73;3.90;;;7.60;99.90;;;;;;5035340;28;20137;-70
2022/11/25 00:18:30;;;;;;;16.58;4.35;;;7.70;99.90;;;;;;5034990;28;20048;-70
2022/11/25 00:20:56;;;;;;;20.55;5.03;;;7.60;99.90;;;;;;5052805;28;20128;-70
2022/11/25 00:23:22;;;;;;;18.33;4.60;;;7.50;99.90;;;;;;5052531;28;20112;-70
2022/11/25 00:25:47;;;;;;;13.80;3.90;;;7.70;99.90;;;;;;5034870;28;20045;-70
2022/11/25 00:28:13;;;;;;;12.70;3.42;;;7.70;99.90;;;;;;5052796;28;20414;-70
2022/11/25 00:30:38;;;;;;;14.25;4.35;;;7.60;99.90;;;;;;5052741;28;20041;-70
2022/11/25 00:33:04;;;;;;;18.15;4.18;;;7.60;99.90;;;;;;5052318;28;20082;-70
2022/11/25 00:35:29;;;;;;;13.23;3.95;;;7.50;99.90;;;;;;5034760;28;20124;-70
2022/11/25 00:37:55;;;;;;;14.25;3.80;;;7.40;99.90;;;;;;5052369;28;20040;-70
2022/11/25 00:40:20;;;;;;;14.93;4.65;;;7.50;99.90;;;;;;5034625;28;20052;-70
2022/11/25 00:45:30;;;;;;;14.93;3.90;;;7.70;99.90;;;;;;5034802;28;20072;-70
2022/11/25 00:50:23;;;;;;;19.25;5.45;;;7.70;99.90;;;;;;5088768;28;20052;-69
2022/11/25 00:52:49;;;;;;;14.75;4.82;;;7.50;99.90;;;;;;5092099;28;20401;-68
2022/11/25 00:55:14;;;;;;;14.18;4.68;;;7.60;99.90;;;;;;5092471;28;20047;-70
2022/11/25 00:57:40;;;;;;;16.02;4.32;;;7.60;99.90;;;;;;5090643;28;20488;-71
2022/11/25 01:00:06;;;;;;;18.40;4.65;;;7.60;99.90;;;;;;5091081;28;20040;-71
2022/11/25 01:02:32;;;;;;;14.15;5.43;;;7.30;99.90;;;;;;5092117;28;20113;-71
2022/11/25 01:04:57;;;;;;;19.85;4.55;;;7.40;99.90;;;;;;5092773;28;20489;-71
2022/11/25 01:07:23;;;;;;;16.15;4.53;;;7.40;99.90;;;;;;5091040;28;20413;-70
2022/11/25 01:09:49;;;;;;;15.52;4.65;;;7.60;99.90;;;;;;5090871;28;20085;-71
2022/11/25 01:12:15;;;;;;;19.20;5.55;;;7.40;99.90;;;;;;5090810;28;20075;-71
2022/11/25 01:14:40;;;;;;;16.25;4.85;;;7.50;99.90;;;;;;5074089;28;20082;-71
2022/11/25 01:17:06;;;;;;;17.80;5.28;;;7.40;99.90;;;;;;5090819;28;20068;-71
2022/11/25 01:19:32;;;;;;;21.85;4.72;;;7.40;99.90;;;;;;5092071;28;20046;-71
2022/11/25 01:21:57;;;;;;;19.02;5.05;;;7.70;99.90;;;;;;5092264;28;20071;-71
2022/11/25 01:24:25;;;;;;;19.15;5.05;;;7.40;99.90;;;;;;5091892;28;20040;-71
2022/11/25 01:26:52;;;;;;;15.40;5.43;;;7.60;99.90;;;;;;5092143;28;20040;-71
2022/11/25 01:29:18;;;;;;;9.95;4.07;;;7.40;99.90;;;;;;5091918;28;20044;-70
2022/11/25 01:31:44;;;;;;;21.55;5.60;;;7.40;99.90;;;;;;5091912;28;20409;-71
2022/11/25 01:34:15;;;;;;;17.13;4.38;;;7.60;99.90;;;;;;5091859;28;20036;-71
2022/11/25 01:36:41;;;;;;;14.77;4.50;;;7.60;99.90;;;;;;5090593;28;20405;-71
2022/11/25 01:39:07;;;;;;;11.60;5.00;;;7.70;99.90;;;;;;5091946;28;20028;-70
2022/11/25 01:41:34;;;;;;;19.58;5.50;;;7.50;99.90;;;;;;5091939;28;20043;-70
2022/11/25 01:44:10;;;;;;;18.15;4.68;;;7.70;99.90;;;;;;5091539;28;20036;-70
2022/11/25 01:47:14;;;;;;;19.13;5.68;;;7.50;99.90;;;;;;5091978;28;20085;-70
2022/11/25 01:49:59;;;;;;;;;;;7.50;99.90;;;;;;5092018;28;20435;-70
2022/11/25 01:52:37;;;;;;;17.10;4.22;;;7.70;99.90;;;;;;5073355;28;19927;-71
2022/11/25 01:55:28;;;;;;;18.45;5.13;;;7.60;99.90;;;;;;5090689;28;20036;-71
2022/11/25 01:57:57;;;;;;;15.32;4.10;;;7.50;99.90;;;;;;5091121;28;20054;-71
2022/11/25 02:00:22;;;;;;;17.50;6.28;;;7.60;99.90;;;;;;5094853;28;20040;-71
2022/11/25 02:02:50;;;;;;;13.40;5.40;;;7.40;99.90;;;;;;5094270;28;20055;-71
2022/11/25 02:05:23;;;;;;;16.75;4.45;;;7.40;99.90;;;;;;5095655;28;20040;-71
2022/11/25 02:07:51;;;;;;;14.63;4.90;;;7.70;99.90;;;;;;5095948;28;20048;-71
2022/11/25 02:10:22;;;;;;;16.13;4.60;;;7.50;99.90;;;;;;5095713;28;20036;-71
2022/11/25 02:12:48;;;;;;;9.38;4.38;;;7.70;99.90;;;;;;5095516;28;20123;-70
2022/11/25 02:15:15;;;;;;;15.43;5.65;;;7.40;99.90;;;;;;5095674;28;20063;-70
2022/11/25 02:17:42;;;;;;;12.23;4.47;;;7.70;99.90;;;;;;5094209;28;20051;-70
2022/11/25 02:20:09;;;;;;;13.30;4.32;;;7.40;99.90;;;;;;5095712;28;20374;-70
2022/11/25 02:23:02;;;;;;;15.77;5.20;;;7.50;99.90;;;;;;5093895;28;20048;-70
2022/11/25 02:25:37;;;;;;;20.17;4.68;;;7.70;99.90;;;;;;5094186;28;20082;-71
2022/11/25 02:28:16;;;;;;;13.10;5.07;;;7.30;99.90;;;;;;5094066;28;20051;-71
2022/11/25 02:30:42;;;;;;;12.68;4.72;;;7.50;99.90;;;;;;5094001;28;20039;-71
2022/11/25 02:33:08;;;;;;;20.73;5.43;;;7.40;99.90;;;;;;5094951;28;20397;-71
2022/11/25 02:35:45;;;;;;;18.40;5.80;;;7.40;99.90;;;;;;5095300;28;20042;-71
2022/11/25 02:38:29;;;;;;;19.02;5.07;;;7.40;99.90;;;;;;5093921;28;20036;-71
2022/11/25 02:41:02;;;;;;;23.20;5.32;;;7.40;99.90;;;;;;5078271;28;20040;-71
2022/11/25 02:43:28;;;;;;;;;;;7.70;99.90;;;;;;5093960;28;20040;-71
2022/11/25 02:45:58;;;;;;;15.63;5.05;;;7.60;99.90;;;;;;5093797;28;19923;-71
2022/11/25 02:48:26;;;;;;;15.93;5.38;;;7.40;99.90;;;;;;5093603;28;20126;-71
2022/11/25 02:50:52;;;;;;;14.70;4.57;;;7.40;99.90;;;;;;5094813;28;20044;-71
2022/11/25 02:53:17;;;;;;;24.42;6.85;;;7.60;99.90;;;;;;5094814;28;20139;-71
2022/11/25 02:55:43;;;;;;;13.88;6.15;;;7.40;99.90;;;;;;5095059;28;20119;-71
2022/11/25 02:58:09;;;;;;;16.48;4.97;;;7.70;99.90;;;;;;5093518;28;20036;-71
2022/11/25 03:00:35;;;;;;;14.90;5.25;;;7.70;99.90;;;;;;5094853;28;20066;-71
2022/11/25 03:03:00;;;;;;;14.35;5.00;;;7.60;99.90;;;;;;5094513;28;20043;-71
2022/11/25 03:05:26;;;;;;;14.48;4.50;;;7.50;99.90;;;;;;5094494;28;20047;-71
2022/11/25 03:07:51;;;;;;;17.33;6.28;;;7.70;99.90;;;;;;5094629;28;20048;-70
2022/11/25 03:10:17;;;;;;;14.75;4.40;;;7.70;99.90;;;;;;5093850;28;20093;-71
2022/11/25 03:12:43;;;;;;;19.70;4.78;;;7.80;99.90;;;;;;5094420;28;20032;-71
2022/11/25 03:15:09;;;;;;;17.33;4.75;;;7.50;99.90;;;;;;5093400;28;20047;-71
2022/11/25 03:17:36;;;;;;;17.48;4.68;;;7.80;99.90;;;;;;5094518;28;20105;-71
2022/11/25 03:20:02;;;;;;;17.98;4.88;;;7.70;99.90;;;;;;5092982;28;20052;-71
2022/11/25 03:22:27;;;;;;;14.52;4.68;;;7.50;99.90;;;;;;5092786;28;20047;-71
2022/11/25 03:24:53;;;;;;;13.20;4.97;;;7.50;99.90;;;;;;5093079;28;20122;-71
2022/11/25 03:27:18;;;;;;;23.55;5.25;;;7.40;99.90;;;;;;5092934;28;20126;-71
2022/11/25 03:29:44;;;;;;;17.63;5.70;;;7.70;99.90;;;;;;5094196;28;20131;-71
2022/11/25 03:32:09;;;;;;;15.13;4.82;;;7.60;99.90;;;;;;5094210;28;20472;-71
2022/11/25 03:34:35;;;;;;;17.00;6.82;;;7.40;99.90;;;;;;5092517;28;20119;-71
2022/11/25 03:37:00;;;;;;;18.08;4.88;;;7.50;99.90;;;;;;5093976;28;20130;-71
2022/11/25 03:39:26;;;;;;;19.10;5.65;;;7.80;99.90;;;;;;5094112;28;20119;-71
2022/11/25 03:41:51;;;;;;;17.90;5.20;;;7.80;99.90;;;;;;5092648;28;20047;-71
2022/11/25 03:44:17;;;;;;;15.73;5.22;;;7.80;99.90;;;;;;5093745;28;20043;-71
2022/11/25 03:46:42;;;;;;;15.90;5.47;;;7.50;99.90;;;;;;5093879;28;20038;-71
2022/11/25 03:49:08;;;;;;;15.27;5.38;;;7.70;99.90;;;;;;5093534;28;20040;-72
2022/11/25 03:51:33;;;;;;;16.08;6.03;;;7.80;99.90;;;;;;5093718;28;20043;-71
2022/11/25 03:53:59;;;;;;;18.13;6.45;;;7.60;99.90;;;;;;5093599;28;20067;-71
2022/11/25 03:56:25;;;;;;;14.65;5.10;;;7.90;99.90;;;;;;5093812;28;20555;-71
2022/11/25 03:58:51;;;;;;;16.55;5.63;;;7.70;99.90;;;;;;5092300;28;20040;-71
2022/11/25 04:01:16;;;;;;;21.92;6.22;;;7.90;99.90;;;;;;5093626;28;20040;-71
2022/11/25 04:03:42;;;;;;;18.33;6.32;;;7.90;99.90;;;;;;5093180;28;20512;-71
2022/11/25 04:06:07;;;;;;;17.58;5.72;;;7.90;99.90;;;;;;5092063;28;20036;-71
2022/11/25 04:08:33;;;;;;;15.30;6.63;;;7.70;99.90;;;;;;5093448;28;20118;-71
2022/11/25 04:10:58;;;;;;;16.35;5.93;;;7.60;99.90;;;;;;5091964;28;20391;-71
2022/11/25 04:13:24;;;;;;;21.23;6.57;;;7.80;99.90;;;;;;5092911;28;20044;-71
2022/11/25 04:15:50;;;;;;;16.75;5.70;;;7.80;99.90;;;;;;5092173;28;20123;-71
2022/11/25 04:18:16;;;;;;;13.18;5.78;;;7.80;99.90;;;;;;5091817;28;20039;-71
2022/11/25 04:20:42;;;;;;;15.90;5.97;;;7.80;99.90;;;;;;5093089;28;20051;-71
2022/11/25 04:23:08;;;;;;;16.42;5.75;;;7.70;99.90;;;;;;5092011;28;20040;-71
2022/11/25 04:25:35;;;;;;;17.25;6.30;;;7.80;99.90;;;;;;5092062;28;20071;-71
2022/11/25 04:28:01;;;;;;;21.92;6.65;;;7.90;99.90;;;;;;5092854;28;20052;-71
2022/11/25 04:30:27;;;;;;;18.58;7.22;;;8.00;99.90;;;;;;5092924;28;20528;-72
2022/11/25 04:32:53;;;;;;;18.77;5.75;;;7.80;99.90;;;;;;5092504;28;20072;-71
2022/11/25 04:35:18;;;;;;;17.08;6.82;;;8.00;99.90;;;;;;5092766;28;20497;-71
2022/11/25 04:37:44;;;;;;;16.02;6.68;;;7.90;99.90;;;;;;5091792;28;20036;-71
2022/11/25 04:40:10;;;;;;;18.58;8.00;;;7.80;99.90;;;;;;5092807;28;20036;-71
2022/11/25 04:42:38;;;;;;;21.85;7.15;;;7.90;99.90;;;;;;5091215;28;20040;-71
2022/11/25 04:45:10;;;;;;;20.13;7.05;;;8.00;99.90;;;;;;5091507;28;20040;-72
2022/11/25 04:47:37;;;;;;;18.38;6.95;;;8.10;99.90;;;;;;5091304;28;20044;-72
2022/11/25 04:50:05;;;;;;;15.40;6.53;;;8.00;99.90;;;;;;5092378;28;20040;-72
2022/11/25 04:52:32;;;;;;;18.88;8.10;;;7.80;99.90;;;;;;5092475;28;20123;-71
2022/11/25 04:54:58;;;;;;;17.58;7.47;;;8.00;99.90;;;;;;5092647;28;20051;-71
2022/11/25 04:57:23;;;;;;;22.08;8.50;;;7.90;99.90;;;;;;5091209;28;20498;-71
2022/11/25 04:59:49;;;;;;;15.30;7.90;;;7.90;99.90;;;;;;5091069;28;20051;-71
2022/11/25 05:02:16;;;;;;;20.33;8.48;;;8.10;99.90;;;;;;5091992;28;20047;-71
2022/11/25 05:04:43;;;;;;;22.63;7.88;;;8.10;99.90;;;;;;5090739;28;20085;-71
2022/11/25 05:07:09;;;;;;;24.50;8.30;;;8.00;99.90;;;;;;5092377;28;20148;-71
2022/11/25 05:09:35;;;;;;;16.75;7.28;;;8.20;99.90;;;;;;5092298;28;20079;-71
2022/11/25 05:12:00;;;;;;;21.70;7.82;;;8.00;99.90;;;;;;5090835;28;20048;-71
2022/11/25 05:14:26;;;;;;;20.10;7.85;;;8.10;99.90;;;;;;5091919;28;20039;-72
2022/11/25 05:16:52;;;;;;;16.77;8.02;;;8.00;99.90;;;;;;5092041;28;20036;-72
2022/11/25 05:19:17;;;;;;;21.98;8.00;;;8.10;99.90;;;;;;5090775;28;20036;-72
2022/11/25 05:21:43;;;;;;;23.60;8.40;;;7.90;99.90;;;;;;5092224;28;20065;-71
2022/11/25 05:24:09;;;;;;;17.60;8.02;;;8.00;99.90;;;;;;5091931;28;20040;-72
2022/11/25 05:26:34;;;;;;;21.63;8.82;;;7.90;99.90;;;;;;5091978;28;20401;-71
2022/11/25 05:29:00;;;;;;;23.65;9.63;;;7.90;99.90;;;;;;5092330;28;20047;-71
2022/11/25 05:31:25;;;;;;;21.35;11.40;;;8.00;99.90;;;;;;5091661;28;20048;-71
2022/11/25 05:33:51;;;;;;;24.50;9.05;;;8.10;99.90;;;;;;5089616;28;20520;-71
2022/11/25 05:36:17;;;;;;;24.48;9.55;;;8.00;99.90;;;;;;5091734;28;20078;-71
2022/11/25 05:38:42;;;;;;;30.80;10.55;;;8.00;99.90;;;;;;5091601;28;20032;-71
2022/11/25 05:41:09;;;;;;;22.10;9.45;;;8.00;99.90;;;;;;5091688;28;20510;-71
2022/11/25 05:43:35;;;;;;;18.60;8.18;;;8.10;99.90;;;;;;5091346;28;20036;-71
2022/11/25 05:46:08;;;;;;;15.93;8.15;;;8.10;99.90;;;;;;5091503;28;20440;-71
2022/11/25 05:48:34;;;;;;;23.25;9.25;;;8.20;99.90;;;;;;5090071;28;20070;-71
2022/11/25 05:51:00;;;;;;;18.92;8.27;;;8.20;99.90;;;;;;5091715;28;20067;-71
2022/11/25 05:53:26;;;;;;;18.73;8.25;;;8.10;99.90;;;;;;5073054;28;20503;-71
2022/11/25 05:55:55;;;;;;;20.02;9.25;;;8.00;99.90;;;;;;5091537;28;20040;-71
2022/11/25 05:58:20;;;;;;;19.38;9.52;;;8.10;99.90;;;;;;5090430;28;20544;-71
2022/11/25 06:00:46;;;;;;;23.50;9.95;;;8.10;99.90;;;;;;5091443;28;20079;-71
2022/11/25 06:03:11;;;;;;;20.10;8.02;;;8.20;99.90;;;;;;5089854;28;20406;-71
2022/11/25 06:05:37;;;;;;;15.60;8.43;;;8.10;99.90;;;;;;5090205;28;20048;-71
2022/11/25 06:08:03;;;;;;;15.80;8.48;;;8.20;99.90;;;;;;5091196;28;20040;-71
2022/11/25 06:10:28;;;;;;;19.38;8.95;;;8.20;99.90;;;;;;5089915;28;20036;-71
2022/11/25 06:12:54;;;;;;;27.65;11.00;;;8.10;99.90;;;;;;5089564;28;20047;-71
2022/11/25 06:15:19;;;;;;;24.92;10.18;;;8.10;99.90;;;;;;5091128;28;20156;-71
2022/11/25 06:17:45;;;;;;;22.38;9.50;;;8.10;99.90;;;;;;5089941;28;20040;-71
2022/11/25 06:20:10;;;;;;;24.13;10.02;;;8.10;99.90;;;;;;5091297;28;20048;-71
2022/11/25 06:22:36;;;;;;;22.73;9.25;;;8.10;99.90;;;;;;5091005;28;20043;-71
2022/11/25 06:25:02;;;;;;;21.20;9.52;;;8.20;99.90;;;;;;5090113;28;20050;-71
2022/11/25 06:27:27;;;;;;;20.55;12.02;;;8.10;99.90;;;;;;5091156;28;20101;-71
2022/11/25 06:29:53;;;;;;;25.08;12.95;;;8.20;99.90;;;;;;5090909;28;20493;-71
2022/11/25 06:32:19;;;;;;;25.98;12.65;;;8.10;99.90;;;;;;5091129;28;20043;-71
2022/11/25 06:34:44;;;;;;;31.77;12.65;;;8.30;99.90;;;;;;5091074;28;20043;-71
2022/11/25 06:37:10;;;;;;;21.13;10.63;;;8.40;99.90;;;;;;5091179;28;20036;-71
2022/11/25 06:39:35;;;;;;;22.38;9.82;;;8.30;99.90;;;;;;5091075;28;20032;-71
2022/11/25 06:42:01;;;;;;;22.33;10.75;;;8.30;99.90;;;;;;5089609;28;20047;-71
2022/11/25 06:44:26;;;;;;;24.88;11.55;;;8.40;99.90;;;;;;5090582;28;20044;-72
2022/11/25 06:46:52;;;;;;;26.10;10.23;;;8.40;99.90;;;;;;5092870;28;20044;-70
2022/11/25 06:49:17;;;;;;;25.08;11.50;;;8.40;99.90;;;;;;5123270;22;20043;-70
2022/11/25 06:51:43;;;;;;;20.35;9.73;;;8.20;99.90;;;;;;5115409;28;20044;-70
2022/11/25 06:54:09;;;;;;;22.55;10.27;;;8.40;99.90;;;;;;5114460;28;20508;-70
2022/11/25 06:56:35;;;;;;;18.73;9.82;;;8.20;99.90;;;;;;5114841;28;20036;-70
2022/11/25 06:59:02;;;;;;;21.42;10.02;;;8.40;99.90;;;;;;5114831;28;20046;-70
2022/11/25 07:01:29;;;;;;;20.70;9.20;;;8.40;99.90;;;;;;5115381;28;20090;-70
2022/11/25 07:04:02;;;;;;;18.95;9.85;;;8.30;99.90;;;;;;5113600;28;20039;-70
2022/11/25 07:06:28;;;;;;;18.17;9.23;;;8.40;99.90;;;;;;5113980;28;20040;-70
2022/11/25 07:08:54;;;;;;;23.85;9.98;;;8.30;99.90;;;;;;5114882;28;20043;-70
2022/11/25 07:11:26;;;;;;;21.33;9.57;;;8.20;99.90;;;;;;5114724;28;20035;-70
2022/11/25 07:13:58;;;;;;;15.10;7.55;;;8.40;99.90;;;;;;5114707;28;20046;-70
2022/11/25 07:16:23;;;;;;;16.42;7.65;;;8.40;99.90;;;;;;5114448;28;20485;-71
2022/11/25 07:18:49;;;;;;;15.38;8.48;;;8.30;99.90;;;;;;5114716;28;20076;-70
2022/11/25 07:21:18;;;;;;;17.40;8.10;;;8.50;99.90;;;;;;5113373;28;20082;-71
2022/11/25 07:23:45;;;;;;;17.38;7.68;;;8.30;99.90;;;;;;5114293;28;20524;-70
2022/11/25 07:26:20;;;;;;;16.70;8.05;;;8.20;99.90;;;;;;5114833;28;20050;-70
2022/11/25 07:28:46;;;;;;;21.52;8.02;;;8.40;99.90;;;;;;5113436;28;20401;-70
2022/11/25 07:31:20;;;;;;;16.08;7.95;;;8.30;99.90;;;;;;5114541;28;20028;-70
2022/11/25 07:33:46;;;;;;;17.17;7.43;;;8.20;99.90;;;;;;5114248;28;20077;-70
2022/11/25 07:36:13;;;;;;;16.50;7.80;;;8.20;99.90;;;;;;5114364;28;20063;-70
2022/11/25 07:38:39;;;;;;;17.60;7.57;;;8.40;99.90;;;;;;5114190;28;20050;-70
2022/11/25 07:41:07;;;;;;;19.30;8.93;;;8.30;99.90;;;;;;5114433;28;20043;-70
2022/11/25 07:43:33;;;;;;;20.58;9.10;;;8.40;99.90;;;;;;5113812;28;20058;-70
2022/11/25 07:46:12;;;;;;;22.92;8.38;;;8.30;99.90;;;;;;5112837;28;20028;-70
2022/11/25 07:48:38;;;;;;;17.25;7.25;;;8.20;99.90;;;;;;5112889;28;20040;-70
2022/11/25 07:51:05;;;;;;;17.20;7.28;;;8.40;99.90;;;;;;5112656;28;20481;-70
2022/11/25 07:53:30;;;;;;;17.65;6.57;;;8.40;99.90;;;;;;5113926;28;20065;-70
2022/11/25 07:56:00;;;;;;;17.45;6.35;;;8.30;99.90;;;;;;5112353;28;20549;-70
2022/11/25 07:58:26;;;;;;;13.57;5.45;;;8.30;99.90;;;;;;5112454;28;20040;-70
2022/11/25 08:00:51;;;;;;;9.35;5.50;;;8.30;99.90;;;;;;5113879;28;20040;-70
2022/11/25 08:03:17;;;;;;;12.40;6.20;;;8.20;99.90;;;;;;5112378;28;20107;-70
2022/11/25 08:05:42;;;;;;;19.60;5.88;;;8.40;99.90;;;;;;5113737;28;20072;-70
2022/11/25 08:08:08;;;;;;;14.38;6.65;;;8.10;99.90;;;;;;5113644;28;20064;-70
2022/11/25 08:10:33;;;;;;;15.20;6.95;;;8.30;99.90;;;;;;5113500;28;20048;-70
2022/11/25 08:12:59;;;;;;;14.82;5.38;;;8.40;99.90;;;;;;5113393;28;20040;-70
2022/11/25 08:15:25;;;;;;;12.02;5.15;;;8.20;99.90;;;;;;5113762;28;20062;-71
2022/11/25 08:17:51;;;;;;;16.92;5.90;;;8.30;99.90;;;;;;5113551;28;20040;-70
2022/11/25 08:20:17;;;;;;;9.93;5.32;;;8.50;99.90;;;;;;5103158;28;20039;-71
2022/11/25 08:22:42;;;;;;;10.30;5.53;;;8.50;99.90;;;;;;5113239;28;20035;-70
2022/11/25 08:25:08;;;;;;;15.15;6.75;;;8.40;99.90;;;;;;5113611;28;20400;-71
2022/11/25 08:27:34;;;;;;;13.65;5.13;;;8.40;99.90;;;;;;5113325;28;20421;-70
2022/11/25 08:29:59;;;;;;;13.60;4.88;;;8.50;99.90;;;;;;5113247;28;20084;-70
2022/11/25 08:32:25;;;;;;;12.23;5.57;;;8.40;99.90;;;;;;5113065;28;20119;-70
2022/11/25 08:34:50;;;;;;;14.35;5.28;;;8.50;99.90;;;;;;5113145;28;20558;-70
2022/11/25 08:37:16;;;;;;;13.00;5.10;;;8.60;99.90;;;;;;5113342;28;20046;-70
2022/11/25 08:39:41;;;;;;;14.90;4.40;;;8.60;99.90;;;;;;5111707;27;20074;-72
2022/11/25 08:42:07;;;;;;;16.58;4.90;;;8.60;99.90;;;;;;5112919;28;20061;-70
2022/11/25 08:44:33;;;;;;;10.95;4.68;;;8.50;99.90;;;;;;5112594;28;20050;-70
2022/11/25 08:46:59;;;;;;;14.32;4.72;;;8.60;99.90;;;;;;5112934;28;20039;-70
2022/11/25 08:49:25;;;;;;;16.85;5.35;;;8.50;99.90;;;;;;5111295;28;20100;-70
2022/11/25 08:51:51;;;;;;;12.52;5.30;;;8.70;99.90;;;;;;5111618;28;20055;-70
2022/11/25 08:54:17;;;;;;;8.95;4.53;;;8.50;99.90;;;;;;5111238;28;20040;-70
2022/11/25 08:56:42;;;;;;;15.85;5.45;;;8.60;99.90;;;;;;5112899;28;20058;-70
2022/11/25 08:59:08;;;;;;;16.08;4.90;;;8.70;99.90;;;;;;5112554;28;20427;-71
2022/11/25 09:01:33;;;;;;;11.82;4.88;;;8.50;99.90;;;;;;5106592;28;20516;-71
2022/11/25 09:04:00;;;;;;;15.15;5.40;;;8.60;99.90;;;;;;5104966;28;20032;-71
2022/11/25 09:06:27;;;;;;;17.10;4.78;;;8.60;99.90;;;;;;5112659;28;20051;-71
2022/11/25 09:08:57;;;;;;;15.77;4.82;;;8.80;99.90;;;;;;5111902;28;20032;-71
2022/11/25 09:11:24;;;;;;;14.68;5.78;;;8.90;99.90;;;;;;5112543;28;20039;-71
2022/11/25 09:13:50;;;;;;;14.07;6.25;;;8.70;99.90;;;;;;5112306;28;20093;-71
2022/11/25 09:16:15;;;;;;;13.60;5.55;;;8.80;99.90;;;;;;5112430;28;20036;-71
2022/11/25 09:18:41;;;;;;;18.30;6.30;;;8.70;99.90;;;;;;5112269;28;20066;-71
2022/11/25 09:21:09;;;;;;;12.15;5.43;;;8.70;99.90;;;;;;5112445;28;20042;-70
2022/11/25 09:23:37;;;;;;;13.98;5.30;;;8.90;99.90;;;;;;5110735;28;20039;-71
2022/11/25 09:26:04;;;;;;;12.77;5.50;;;8.90;99.90;;;;;;5111149;28;20054;-71
2022/11/25 09:28:30;;;;;;;14.43;6.10;;;8.90;99.90;;;;;;5111130;28;20423;-71
2022/11/25 09:30:55;;;;;;;13.07;5.93;;;8.80;99.90;;;;;;5112163;28;20035;-72
2022/11/25 09:33:21;;;;;;;11.25;5.93;;;8.90;99.90;;;;;;5111840;28;20047;-71
2022/11/25 09:35:47;;;;;;;16.00;6.10;;;9.00;99.90;;;;;;5110952;28;20042;-71
2022/11/25 09:38:13;;;;;;;16.00;5.75;;;8.90;99.90;;;;;;5111191;28;20389;-71
2022/11/25 09:40:42;;;;;;;15.85;6.07;;;9.00;99.90;;;;;;5112043;28;20039;-71
2022/11/25 09:46:47;;;;;;;21.02;6.65;;;9.00;99.90;;;;;;5092205;28;20077;-70
2022/11/25 09:49:32;;;;;;;17.10;5.97;;;9.00;99.90;;;;;;5091604;28;20050;-70
2022/11/25 09:52:25;;;;;;;9.85;6.07;;;9.10;99.90;;;;;;5091575;28;20391;-71
2022/11/25 09:55:12;;;;;;;16.33;6.47;;;9.10;99.90;;;;;;5090469;28;20082;-71
2022/11/25 09:58:15;;;;;;;21.83;6.18;;;9.20;99.90;;;;;;5090495;28;20266;-71
2022/11/25 10:00:44;;;;;;;11.20;5.45;;;9.20;99.90;;;;;;5100915;28;20050;-71
2022/11/25 10:03:32;;;;;;;14.93;5.70;;;9.10;99.90;;;;;;5091437;28;20138;-71
2022/11/25 10:06:16;;;;;;;14.40;5.38;;;9.20;99.90;;;;;;5090347;28;20036;-71
2022/11/25 10:08:56;;;;;;;11.52;5.25;;;9.10;99.90;;;;;;5107916;28;20051;-71
2022/11/25 10:11:52;;;;;;;16.83;6.03;;;9.30;99.90;;;;;;5112095;28;20031;-71
2022/11/25 10:14:41;;;;;;;11.32;5.00;;;9.10;99.90;;;;;;5110415;28;20097;-72
2022/11/25 10:17:16;;;;;;;13.88;5.63;;;9.30;99.90;;;;;;5110911;28;20071;-71
2022/11/25 10:19:58;;;;;;;16.52;6.30;;;9.10;99.90;;;;;;5113685;28;20401;-71
2022/11/25 10:22:31;;;;;;;12.70;5.63;;;9.10;99.90;;;;;;5114303;28;20067;-70
2022/11/25 10:25:01;;;;;;;14.27;5.43;;;9.30;99.90;;;;;;5114541;28;20086;-71
2022/11/25 10:27:37;;;;;;;14.98;5.75;;;9.30;99.90;;;;;;5114631;28;20130;-71
2022/11/25 10:30:22;;;;;;;13.65;4.80;;;9.30;99.90;;;;;;5114539;28;20156;-71
2022/11/25 10:33:17;;;;;;;12.52;4.88;;;9.40;99.90;;;;;;5115546;27;20046;-71
2022/11/25 10:35:53;;;;;;;14.65;4.45;;;9.30;99.90;;;;;;5089131;28;20067;-71
2022/11/25 10:38:28;;;;;;;13.32;4.88;;;9.50;99.90;;;;;;5115474;28;20485;-71
2022/11/25 10:40:54;;;;;;;14.90;5.85;;;9.50;99.90;;;;;;5114260;28;20493;-71
2022/11/25 10:43:20;;;;;;;14.65;4.97;;;9.50;99.90;;;;;;5113974;28;20040;-71
2022/11/25 10:46:12;;;;;;;15.70;5.60;;;9.50;99.90;;;;;;5115454;28;20040;-71
2022/11/25 10:49:07;;;;;;;14.50;5.93;;;9.60;99.90;;;;;;5113917;28;20055;-70
2022/11/25 10:51:42;;;;;;;13.57;5.13;;;9.60;99.90;;;;;;5111426;28;20139;-70
2022/11/25 10:54:14;;;;;;;11.60;4.97;;;9.50;99.90;;;;;;5113781;28;20478;-70
2022/11/25 10:56:46;;;;;;;17.85;6.55;;;9.70;99.90;;;;;;5115360;28;20046;-71
2022/11/25 10:59:20;;;;;;;13.63;5.68;;;9.60;99.90;;;;;;5106756;28;20040;-71
2022/11/25 11:01:45;;;;;;;11.20;5.70;;;9.70;99.90;;;;;;5110010;28;20084;-71
2022/11/25 11:04:17;;;;;;;15.20;6.43;;;9.60;99.90;;;;;;5108603;28;20031;-71
2022/11/25 11:06:45;;;;;;;13.65;6.38;;;9.60;99.90;;;;;;5102366;28;20024;-71
2022/11/25 11:09:37;;;;;;;13.88;6.10;;;9.80;99.90;;;;;;5100145;28;20036;-71
2022/11/25 11:12:24;;;;;;;12.75;5.20;;;9.90;99.90;;;;;;5093397;28;20062;-71
2022/11/25 11:14:51;;;;;;;13.70;4.90;;;10.00;99.90;;;;;;5093315;28;20068;-71
2022/11/25 11:17:35;;;;;;;15.55;5.35;;;10.00;99.90;;;;;;5094540;28;20032;-72
2022/11/25 11:20:03;;;;;;;20.67;5.60;;;10.00;99.90;;;;;;5094412;28;20092;-71
2022/11/25 11:22:28;;;;;;;12.98;5.22;;;10.00;99.90;;;;;;5094161;28;20040;-71
2022/11/25 11:25:19;;;;;;;16.75;6.18;;;10.10;99.90;;;;;;5094116;28;20100;-71
2022/11/25 11:27:45;;;;;;;15.77;5.30;;;10.20;99.90;;;;;;5092728;28;20044;-71
2022/11/25 11:30:20;;;;;;;17.25;4.88;;;10.40;99.90;;;;;;5092612;28;20036;-71
2022/11/25 11:33:04;;;;;;;12.73;4.18;;;10.30;99.90;;;;;;5097437;28;20047;-71
2022/11/25 11:35:47;;;;;;;11.00;3.85;;;10.50;99.90;;;;;;5101358;28;20073;-70
2022/11/25 11:38:28;;;;;;;13.05;5.00;;;10.40;99.90;;;;;;5103251;28;20028;-71
2022/11/25 11:41:18;;;;;;;14.73;4.65;;;10.50;99.90;;;;;;5102602;28;20431;-72
2022/11/25 11:44:25;;;;;;;12.85;4.00;;;10.30;99.90;;;;;;5064335;28;20052;-70
2022/11/25 11:46:58;;;;;;;10.43;4.07;;;10.20;99.90;;;;;;5069860;28;20521;-70
2022/11/25 11:49:37;;;;;;;9.02;3.47;;;10.30;99.90;;;;;;5092664;28;20079;-70
2022/11/25 11:52:17;;;;;;;14.40;3.70;;;10.30;99.90;;;;;;5092580;28;20076;-72
2022/11/25 11:54:45;;;;;;;14.73;3.50;;;10.50;99.90;;;;;;5092482;28;20543;-70
2022/11/25 11:57:32;;;;;;;15.85;3.75;;;10.20;99.90;;;;;;5093943;28;20093;-71
2022/11/25 12:00:07;;;;;;;7.50;3.50;;;10.20;99.90;;;;;;5093760;28;20398;-71
2022/11/25 12:03:10;;;;;;;7.55;3.10;;;10.20;99.90;;;;;;5093336;28;20231;-70
2022/11/25 12:05:36;;;;;;;17.73;4.32;;;10.20;99.90;;;;;;5092634;28;20401;-70
2022/11/25 12:08:17;;;;;;;18.27;4.60;;;10.50;99.90;;;;;;5092491;28;20045;-70
2022/11/25 12:11:08;;;;;;;11.63;3.10;;;10.60;99.90;;;;;;5098045;28;20067;-71
2022/11/25 12:13:41;;;;;;;14.27;3.80;;;10.70;99.90;;;;;;5098143;28;20048;-70
2022/11/25 12:16:28;;;;;;;13.32;4.38;;;10.60;99.90;;;;;;5091911;28;20122;-70
2022/11/25 12:19:05;;;;;;;15.65;3.30;;;10.60;99.90;;;;;;5091836;28;20036;-71
2022/11/25 12:21:54;;;;;;;8.52;2.67;;;10.60;99.90;;;;;;5091844;28;20044;-71
2022/11/25 12:24:45;;;;;;;15.73;3.38;;;10.60;99.90;;;;;;5093081;28;20105;-70
2022/11/25 12:27:30;;;;;;;18.63;3.78;;;10.80;99.90;;;;;;5092976;28;20547;-71
2022/11/25 12:29:55;;;;;;;14.00;3.80;;;10.80;99.90;;;;;;5091659;28;20054;-70
2022/11/25 12:32:27;;;;;;;13.02;2.70;;;10.60;99.90;;;;;;5091584;28;20048;-70
2022/11/25 12:35:04;;;;;;;10.93;3.33;;;10.50;99.90;;;;;;5093047;28;20086;-70
2022/11/25 12:37:54;;;;;;;11.80;3.00;;;10.70;99.90;;;;;;5091602;28;20044;-70
2022/11/25 12:40:38;;;;;;;11.35;3.47;;;10.60;99.90;;;;;;5092684;28;20043;-70
2022/11/25 12:43:16;;;;;;;11.48;2.70;;;10.70;99.90;;;;;;5090186;28;20044;-70
2022/11/25 12:45:44;;;;;;;11.88;3.28;;;10.50;99.90;;;;;;5092548;28;20457;-71
2022/11/25 12:48:11;;;;;;;10.48;2.88;;;10.60;99.90;;;;;;5092652;28;20039;-70
2022/11/25 12:51:13;;;;;;;8.75;3.38;;;10.60;99.90;;;;;;5128694;22;20043;-68
2022/11/25 12:54:17;;;;;;;9.07;2.45;;;10.70;99.90;;;;;;5111912;28;20044;-68
2022/11/25 12:57:14;;;;;;;19.73;3.38;;;10.50;99.90;;;;;;5110758;28;20063;-68
2022/11/25 13:00:01;;;;;;;21.95;3.55;;;10.50;99.90;;;;;;5111159;28;20047;-68
2022/11/25 13:03:18;;;;;;;11.93;2.63;;;10.70;99.90;;;;;;5111161;28;20485;-68
2022/11/25 13:06:15;;;;;;;16.17;3.67;;;10.60;99.90;;;;;;5051766;28;20058;-68
2022/11/25 13:08:53;;;;;;;13.73;3.45;;;10.60;99.90;;;;;;5112296;28;20042;-68
2022/11/25 13:11:46;;;;;;;13.95;3.17;;;10.80;99.90;;;;;;5112306;28;20036;-68